sensor_id;sensor_type;location;lat;lon;timestamp;P1;durP1;ratioP1;P2;durP2;ratioP2
23370;SDS011;11858;51.056;3.712;2023-05-29T00:01:43;12.68;;;11.88;;
23370;SDS011;11858;51.056;3.712;2023-05-29T00:04:09;12.13;;;11.43;;
23370;SDS011;11858;51.056;3.712;2023-05-29T00:06:37;12.57;;;11.88;;
23370;SDS011;11858;51.056;3.712;2023-05-29T00:09:02;12.52;;;11.60;;
23370;SDS011;11858;51.056;3.712;2023-05-29T00:11:29;12.57;;;11.88;;
23370;SDS011;11858;51.056;3.712;2023-05-29T00:13:55;12.23;;;11.52;;
23370;SDS011;11858;51.056;3.712;2023-05-29T00:16:21;15.88;;;13.85;;
23370;SDS011;11858;51.056;3.712;2023-05-29T00:18:48;13.05;;;12.32;;
23370;SDS011;11858;51.056;3.712;2023-05-29T00:21:14;12.45;;;11.75;;
23370;SDS011;11858;51.056;3.712;2023-05-29T00:23:41;11.50;;;10.90;;
23370;SDS011;11858;51.056;3.712;2023-05-29T00:26:07;13.70;;;12.80;;
23370;SDS011;11858;51.056;3.712;2023-05-29T00:28:36;11.90;;;11.20;;
23370;SDS011;11858;51.056;3.712;2023-05-29T00:31:02;11.80;;;11.20;;
23370;SDS011;11858;51.056;3.712;2023-05-29T00:33:27;11.88;;;11.20;;
23370;SDS011;11858;51.056;3.712;2023-05-29T00:35:53;12.77;;;11.85;;
23370;SDS011;11858;51.056;3.712;2023-05-29T00:38:19;12.25;;;11.55;;
23370;SDS011;11858;51.056;3.712;2023-05-29T00:40:44;11.10;;;10.50;;
23370;SDS011;11858;51.056;3.712;2023-05-29T00:43:10;11.73;;;11.05;;
23370;SDS011;11858;51.056;3.712;2023-05-29T00:45:36;11.70;;;11.10;;
23370;SDS011;11858;51.056;3.712;2023-05-29T00:48:05;11.93;;;11.23;;
23370;SDS011;11858;51.056;3.712;2023-05-29T00:50:32;17.38;;;16.30;;
23370;SDS011;11858;51.056;3.712;2023-05-29T00:52:59;11.95;;;11.25;;
23370;SDS011;11858;51.056;3.712;2023-05-29T00:55:26;11.30;;;10.70;;
23370;SDS011;11858;51.056;3.712;2023-05-29T00:57:53;11.95;;;11.13;;
23370;SDS011;11858;51.056;3.712;2023-05-29T01:00:19;12.10;;;11.38;;
23370;SDS011;11858;51.056;3.712;2023-05-29T01:02:45;12.10;;;11.40;;
23370;SDS011;11858;51.056;3.712;2023-05-29T01:05:12;11.98;;;11.15;;
23370;SDS011;11858;51.056;3.712;2023-05-29T01:07:40;13.38;;;12.48;;
23370;SDS011;11858;51.056;3.712;2023-05-29T01:10:07;12.88;;;12.18;;
23370;SDS011;11858;51.056;3.712;2023-05-29T01:12:41;12.70;;;12.00;;
23370;SDS011;11858;51.056;3.712;2023-05-29T01:15:24;13.93;;;13.05;;
23370;SDS011;11858;51.056;3.712;2023-05-29T01:18:17;14.02;;;13.02;;
23370;SDS011;11858;51.056;3.712;2023-05-29T01:21:12;14.85;;;13.70;;
23370;SDS011;11858;51.056;3.712;2023-05-29T01:26:48;14.70;;;13.80;;
23370;SDS011;11858;51.056;3.712;2023-05-29T01:29:30;13.80;;;13.00;;
23370;SDS011;11858;51.056;3.712;2023-05-29T01:31:59;13.88;;;13.07;;
23370;SDS011;11858;51.056;3.712;2023-05-29T01:34:26;13.60;;;12.80;;
23370;SDS011;11858;51.056;3.712;2023-05-29T01:36:52;14.20;;;13.40;;
23370;SDS011;11858;51.056;3.712;2023-05-29T01:39:18;14.07;;;13.27;;
23370;SDS011;11858;51.056;3.712;2023-05-29T01:41:46;13.98;;;13.18;;
23370;SDS011;11858;51.056;3.712;2023-05-29T01:44:12;14.90;;;14.00;;
23370;SDS011;11858;51.056;3.712;2023-05-29T01:46:40;14.57;;;13.75;;
23370;SDS011;11858;51.056;3.712;2023-05-29T01:49:06;15.30;;;14.40;;
23370;SDS011;11858;51.056;3.712;2023-05-29T01:51:33;15.38;;;14.48;;
23370;SDS011;11858;51.056;3.712;2023-05-29T01:54:00;15.25;;;14.35;;
23370;SDS011;11858;51.056;3.712;2023-05-29T01:56:26;15.38;;;14.40;;
23370;SDS011;11858;51.056;3.712;2023-05-29T01:58:54;15.23;;;14.32;;
23370;SDS011;11858;51.056;3.712;2023-05-29T02:01:21;14.80;;;13.93;;
23370;SDS011;11858;51.056;3.712;2023-05-29T02:03:47;16.02;;;15.02;;
23370;SDS011;11858;51.056;3.712;2023-05-29T02:06:13;15.63;;;14.73;;
23370;SDS011;11858;51.056;3.712;2023-05-29T02:08:38;15.23;;;14.32;;
23370;SDS011;11858;51.056;3.712;2023-05-29T02:11:04;16.13;;;15.13;;
23370;SDS011;11858;51.056;3.712;2023-05-29T02:13:30;14.70;;;13.85;;
23370;SDS011;11858;51.056;3.712;2023-05-29T02:15:56;14.45;;;13.65;;
23370;SDS011;11858;51.056;3.712;2023-05-29T02:18:21;15.27;;;14.38;;
23370;SDS011;11858;51.056;3.712;2023-05-29T02:20:47;15.65;;;14.75;;
23370;SDS011;11858;51.056;3.712;2023-05-29T02:23:13;15.73;;;14.82;;
23370;SDS011;11858;51.056;3.712;2023-05-29T02:25:40;17.00;;;15.65;;
23370;SDS011;11858;51.056;3.712;2023-05-29T02:28:06;15.80;;;14.82;;
23370;SDS011;11858;51.056;3.712;2023-05-29T02:30:31;15.15;;;14.25;;
23370;SDS011;11858;51.056;3.712;2023-05-29T02:32:57;17.17;;;15.82;;
23370;SDS011;11858;51.056;3.712;2023-05-29T02:35:23;15.30;;;14.40;;
23370;SDS011;11858;51.056;3.712;2023-05-29T02:37:49;15.63;;;14.73;;
23370;SDS011;11858;51.056;3.712;2023-05-29T02:40:15;16.25;;;15.25;;
23370;SDS011;11858;51.056;3.712;2023-05-29T02:42:42;15.25;;;14.35;;
23370;SDS011;11858;51.056;3.712;2023-05-29T02:45:07;15.45;;;14.43;;
23370;SDS011;11858;51.056;3.712;2023-05-29T02:47:34;15.80;;;14.85;;
23370;SDS011;11858;51.056;3.712;2023-05-29T02:50:00;15.55;;;14.50;;
23370;SDS011;11858;51.056;3.712;2023-05-29T02:52:26;15.50;;;14.60;;
23370;SDS011;11858;51.056;3.712;2023-05-29T02:54:52;16.23;;;15.20;;
23370;SDS011;11858;51.056;3.712;2023-05-29T02:57:19;16.30;;;15.30;;
23370;SDS011;11858;51.056;3.712;2023-05-29T02:59:45;15.55;;;14.65;;
23370;SDS011;11858;51.056;3.712;2023-05-29T03:02:11;15.48;;;14.57;;
23370;SDS011;11858;51.056;3.712;2023-05-29T03:04:36;15.80;;;14.80;;
23370;SDS011;11858;51.056;3.712;2023-05-29T03:07:02;15.20;;;14.30;;
23370;SDS011;11858;51.056;3.712;2023-05-29T03:09:28;15.50;;;14.60;;
23370;SDS011;11858;51.056;3.712;2023-05-29T03:11:53;16.60;;;15.60;;
23370;SDS011;11858;51.056;3.712;2023-05-29T03:14:19;15.15;;;14.25;;
23370;SDS011;11858;51.056;3.712;2023-05-29T03:16:46;15.30;;;14.40;;
23370;SDS011;11858;51.056;3.712;2023-05-29T03:19:14;15.23;;;14.32;;
23370;SDS011;11858;51.056;3.712;2023-05-29T03:21:40;15.55;;;14.55;;
23370;SDS011;11858;51.056;3.712;2023-05-29T03:24:06;16.85;;;15.57;;
23370;SDS011;11858;51.056;3.712;2023-05-29T03:26:31;15.82;;;14.82;;
23370;SDS011;11858;51.056;3.712;2023-05-29T03:28:57;15.57;;;14.65;;
23370;SDS011;11858;51.056;3.712;2023-05-29T03:31:22;15.70;;;14.70;;
23370;SDS011;11858;51.056;3.712;2023-05-29T03:33:49;15.00;;;14.10;;
23370;SDS011;11858;51.056;3.712;2023-05-29T03:36:14;16.27;;;15.27;;
23370;SDS011;11858;51.056;3.712;2023-05-29T03:38:43;16.05;;;15.05;;
23370;SDS011;11858;51.056;3.712;2023-05-29T03:41:09;15.93;;;14.82;;
23370;SDS011;11858;51.056;3.712;2023-05-29T03:43:35;15.40;;;14.50;;
23370;SDS011;11858;51.056;3.712;2023-05-29T03:46:01;14.80;;;13.90;;
23370;SDS011;11858;51.056;3.712;2023-05-29T03:48:27;14.88;;;13.88;;
23370;SDS011;11858;51.056;3.712;2023-05-29T03:50:52;14.07;;;13.27;;
23370;SDS011;11858;51.056;3.712;2023-05-29T03:53:18;15.02;;;14.13;;
23370;SDS011;11858;51.056;3.712;2023-05-29T03:55:44;15.52;;;14.52;;
23370;SDS011;11858;51.056;3.712;2023-05-29T03:58:09;14.88;;;13.98;;
23370;SDS011;11858;51.056;3.712;2023-05-29T04:00:37;16.63;;;15.07;;
23370;SDS011;11858;51.056;3.712;2023-05-29T04:03:03;14.43;;;13.63;;
23370;SDS011;11858;51.056;3.712;2023-05-29T04:05:28;14.60;;;13.80;;
23370;SDS011;11858;51.056;3.712;2023-05-29T04:07:55;14.40;;;13.60;;
23370;SDS011;11858;51.056;3.712;2023-05-29T04:10:21;14.00;;;13.20;;
23370;SDS011;11858;51.056;3.712;2023-05-29T04:12:47;13.98;;;13.18;;
23370;SDS011;11858;51.056;3.712;2023-05-29T04:15:12;13.70;;;12.90;;
23370;SDS011;11858;51.056;3.712;2023-05-29T04:17:38;13.73;;;12.93;;
23370;SDS011;11858;51.056;3.712;2023-05-29T04:20:04;13.88;;;13.07;;
23370;SDS011;11858;51.056;3.712;2023-05-29T04:22:34;14.43;;;13.13;;
23370;SDS011;11858;51.056;3.712;2023-05-29T04:25:06;13.20;;;12.50;;
23370;SDS011;11858;51.056;3.712;2023-05-29T04:27:32;13.57;;;12.77;;
23370;SDS011;11858;51.056;3.712;2023-05-29T04:30:03;14.68;;;13.30;;
23370;SDS011;11858;51.056;3.712;2023-05-29T04:32:30;13.55;;;12.75;;
23370;SDS011;11858;51.056;3.712;2023-05-29T04:34:56;13.50;;;12.70;;
23370;SDS011;11858;51.056;3.712;2023-05-29T04:37:21;13.70;;;12.90;;
23370;SDS011;11858;51.056;3.712;2023-05-29T04:39:54;13.85;;;13.05;;
23370;SDS011;11858;51.056;3.712;2023-05-29T04:42:20;13.80;;;13.00;;
23370;SDS011;11858;51.056;3.712;2023-05-29T04:44:47;13.52;;;12.73;;
23370;SDS011;11858;51.056;3.712;2023-05-29T04:47:14;13.88;;;12.80;;
23370;SDS011;11858;51.056;3.712;2023-05-29T04:49:40;14.13;;;13.20;;
23370;SDS011;11858;51.056;3.712;2023-05-29T04:52:06;13.70;;;12.90;;
23370;SDS011;11858;51.056;3.712;2023-05-29T04:54:32;14.27;;;13.05;;
23370;SDS011;11858;51.056;3.712;2023-05-29T04:56:59;14.02;;;13.02;;
23370;SDS011;11858;51.056;3.712;2023-05-29T04:59:25;14.05;;;13.15;;
23370;SDS011;11858;51.056;3.712;2023-05-29T05:01:51;13.48;;;12.68;;
23370;SDS011;11858;51.056;3.712;2023-05-29T05:04:16;14.50;;;13.70;;
23370;SDS011;11858;51.056;3.712;2023-05-29T05:06:42;13.52;;;12.75;;
23370;SDS011;11858;51.056;3.712;2023-05-29T05:09:09;13.30;;;12.60;;
23370;SDS011;11858;51.056;3.712;2023-05-29T05:11:35;14.50;;;13.60;;
23370;SDS011;11858;51.056;3.712;2023-05-29T05:14:00;13.98;;;13.18;;
23370;SDS011;11858;51.056;3.712;2023-05-29T05:16:26;14.10;;;13.30;;
23370;SDS011;11858;51.056;3.712;2023-05-29T05:18:52;14.38;;;13.57;;
23370;SDS011;11858;51.056;3.712;2023-05-29T05:21:17;14.40;;;13.60;;
23370;SDS011;11858;51.056;3.712;2023-05-29T05:23:43;17.05;;;15.18;;
23370;SDS011;11858;51.056;3.712;2023-05-29T05:26:08;14.07;;;13.27;;
23370;SDS011;11858;51.056;3.712;2023-05-29T05:28:34;14.95;;;14.07;;
23370;SDS011;11858;51.056;3.712;2023-05-29T05:31:00;15.20;;;14.30;;
23370;SDS011;11858;51.056;3.712;2023-05-29T05:33:26;15.20;;;14.30;;
23370;SDS011;11858;51.056;3.712;2023-05-29T05:35:52;15.75;;;14.85;;
23370;SDS011;11858;51.056;3.712;2023-05-29T05:38:18;16.35;;;15.18;;
23370;SDS011;11858;51.056;3.712;2023-05-29T05:40:43;14.95;;;14.10;;
23370;SDS011;11858;51.056;3.712;2023-05-29T05:43:10;14.70;;;13.90;;
23370;SDS011;11858;51.056;3.712;2023-05-29T05:45:35;14.35;;;13.55;;
23370;SDS011;11858;51.056;3.712;2023-05-29T05:48:02;14.43;;;13.63;;
23370;SDS011;11858;51.056;3.712;2023-05-29T05:50:28;14.80;;;14.00;;
23370;SDS011;11858;51.056;3.712;2023-05-29T05:52:54;14.60;;;13.80;;
23370;SDS011;11858;51.056;3.712;2023-05-29T05:55:20;14.70;;;13.90;;
23370;SDS011;11858;51.056;3.712;2023-05-29T05:57:45;14.43;;;13.63;;
23370;SDS011;11858;51.056;3.712;2023-05-29T06:00:11;14.65;;;13.85;;
23370;SDS011;11858;51.056;3.712;2023-05-29T06:02:38;14.23;;;13.43;;
23370;SDS011;11858;51.056;3.712;2023-05-29T06:05:07;14.57;;;13.77;;
23370;SDS011;11858;51.056;3.712;2023-05-29T06:07:34;16.38;;;15.45;;
23370;SDS011;11858;51.056;3.712;2023-05-29T06:10:00;14.95;;;14.15;;
23370;SDS011;11858;51.056;3.712;2023-05-29T06:12:26;14.93;;;14.13;;
23370;SDS011;11858;51.056;3.712;2023-05-29T06:14:52;15.48;;;14.57;;
23370;SDS011;11858;51.056;3.712;2023-05-29T06:17:18;15.57;;;14.68;;
23370;SDS011;11858;51.056;3.712;2023-05-29T06:19:44;15.68;;;14.77;;
23370;SDS011;11858;51.056;3.712;2023-05-29T06:22:09;15.75;;;14.85;;
23370;SDS011;11858;51.056;3.712;2023-05-29T06:24:35;16.63;;;15.52;;
23370;SDS011;11858;51.056;3.712;2023-05-29T06:27:00;16.60;;;15.60;;
23370;SDS011;11858;51.056;3.712;2023-05-29T06:29:26;16.13;;;15.23;;
23370;SDS011;11858;51.056;3.712;2023-05-29T06:31:52;16.98;;;15.98;;
23370;SDS011;11858;51.056;3.712;2023-05-29T06:34:18;16.42;;;15.48;;
23370;SDS011;11858;51.056;3.712;2023-05-29T06:36:43;16.50;;;15.50;;
23370;SDS011;11858;51.056;3.712;2023-05-29T06:39:09;16.02;;;15.13;;
23370;SDS011;11858;51.056;3.712;2023-05-29T06:41:35;17.23;;;16.23;;
23370;SDS011;11858;51.056;3.712;2023-05-29T06:44:01;15.73;;;14.82;;
23370;SDS011;11858;51.056;3.712;2023-05-29T06:46:27;16.25;;;15.35;;
23370;SDS011;11858;51.056;3.712;2023-05-29T06:48:52;16.15;;;15.25;;
23370;SDS011;11858;51.056;3.712;2023-05-29T06:51:18;16.00;;;15.10;;
23370;SDS011;11858;51.056;3.712;2023-05-29T06:53:43;16.67;;;15.68;;
23370;SDS011;11858;51.056;3.712;2023-05-29T06:56:09;16.02;;;15.13;;
23370;SDS011;11858;51.056;3.712;2023-05-29T06:58:35;16.30;;;15.40;;
23370;SDS011;11858;51.056;3.712;2023-05-29T07:01:01;15.52;;;14.63;;
23370;SDS011;11858;51.056;3.712;2023-05-29T07:03:27;16.85;;;15.77;;
23370;SDS011;11858;51.056;3.712;2023-05-29T07:05:53;16.55;;;15.43;;
23370;SDS011;11858;51.056;3.712;2023-05-29T07:08:19;16.23;;;15.32;;
23370;SDS011;11858;51.056;3.712;2023-05-29T07:10:45;16.58;;;15.57;;
23370;SDS011;11858;51.056;3.712;2023-05-29T07:13:14;16.17;;;15.27;;
23370;SDS011;11858;51.056;3.712;2023-05-29T07:15:40;16.98;;;15.88;;
23370;SDS011;11858;51.056;3.712;2023-05-29T07:18:06;16.50;;;15.50;;
23370;SDS011;11858;51.056;3.712;2023-05-29T07:20:31;17.77;;;16.67;;
23370;SDS011;11858;51.056;3.712;2023-05-29T07:22:57;18.27;;;17.17;;
23370;SDS011;11858;51.056;3.712;2023-05-29T07:25:22;16.77;;;15.68;;
23370;SDS011;11858;51.056;3.712;2023-05-29T07:27:48;17.55;;;16.35;;
23370;SDS011;11858;51.056;3.712;2023-05-29T07:30:14;16.10;;;15.20;;
23370;SDS011;11858;51.056;3.712;2023-05-29T07:32:40;17.30;;;16.30;;
23370;SDS011;11858;51.056;3.712;2023-05-29T07:35:06;17.42;;;16.33;;
23370;SDS011;11858;51.056;3.712;2023-05-29T07:37:32;17.60;;;16.50;;
23370;SDS011;11858;51.056;3.712;2023-05-29T07:39:57;17.58;;;16.38;;
23370;SDS011;11858;51.056;3.712;2023-05-29T07:42:23;18.38;;;16.95;;
23370;SDS011;11858;51.056;3.712;2023-05-29T07:44:49;17.10;;;16.10;;
23370;SDS011;11858;51.056;3.712;2023-05-29T07:47:14;16.52;;;15.52;;
23370;SDS011;11858;51.056;3.712;2023-05-29T07:49:40;16.65;;;15.65;;
23370;SDS011;11858;51.056;3.712;2023-05-29T07:52:06;17.50;;;16.40;;
23370;SDS011;11858;51.056;3.712;2023-05-29T07:54:31;17.70;;;16.50;;
23370;SDS011;11858;51.056;3.712;2023-05-29T07:57:01;17.35;;;16.30;;
23370;SDS011;11858;51.056;3.712;2023-05-29T07:59:34;16.85;;;15.80;;
23370;SDS011;11858;51.056;3.712;2023-05-29T08:02:06;16.48;;;15.48;;
23370;SDS011;11858;51.056;3.712;2023-05-29T08:04:32;18.52;;;16.75;;
23370;SDS011;11858;51.056;3.712;2023-05-29T08:06:58;16.60;;;15.60;;
23370;SDS011;11858;51.056;3.712;2023-05-29T08:09:25;17.23;;;16.23;;
23370;SDS011;11858;51.056;3.712;2023-05-29T08:11:51;16.92;;;15.93;;
23370;SDS011;11858;51.056;3.712;2023-05-29T08:14:16;18.52;;;17.33;;
23370;SDS011;11858;51.056;3.712;2023-05-29T08:16:42;17.00;;;16.00;;
23370;SDS011;11858;51.056;3.712;2023-05-29T08:19:08;17.50;;;16.40;;
23370;SDS011;11858;51.056;3.712;2023-05-29T08:21:33;18.17;;;17.00;;
23370;SDS011;11858;51.056;3.712;2023-05-29T08:23:59;18.50;;;17.30;;
23370;SDS011;11858;51.056;3.712;2023-05-29T08:26:29;18.48;;;17.27;;
23370;SDS011;11858;51.056;3.712;2023-05-29T08:28:55;17.48;;;16.38;;
23370;SDS011;11858;51.056;3.712;2023-05-29T08:31:21;17.85;;;16.75;;
23370;SDS011;11858;51.056;3.712;2023-05-29T08:33:50;18.27;;;16.98;;
23370;SDS011;11858;51.056;3.712;2023-05-29T08:36:15;17.58;;;16.48;;
23370;SDS011;11858;51.056;3.712;2023-05-29T08:38:42;16.75;;;15.75;;
23370;SDS011;11858;51.056;3.712;2023-05-29T08:41:08;17.70;;;16.60;;
23370;SDS011;11858;51.056;3.712;2023-05-29T08:43:35;17.90;;;16.80;;
23370;SDS011;11858;51.056;3.712;2023-05-29T08:46:02;19.00;;;17.80;;
23370;SDS011;11858;51.056;3.712;2023-05-29T08:48:29;18.10;;;17.00;;
23370;SDS011;11858;51.056;3.712;2023-05-29T08:50:57;17.52;;;16.42;;
23370;SDS011;11858;51.056;3.712;2023-05-29T08:53:24;16.77;;;15.77;;
23370;SDS011;11858;51.056;3.712;2023-05-29T08:55:51;18.13;;;16.98;;
23370;SDS011;11858;51.056;3.712;2023-05-29T08:58:22;16.83;;;15.82;;
23370;SDS011;11858;51.056;3.712;2023-05-29T09:00:50;18.23;;;16.50;;
23370;SDS011;11858;51.056;3.712;2023-05-29T09:03:16;17.00;;;16.00;;
23370;SDS011;11858;51.056;3.712;2023-05-29T09:05:42;16.98;;;15.98;;
23370;SDS011;11858;51.056;3.712;2023-05-29T09:08:09;17.60;;;16.50;;
23370;SDS011;11858;51.056;3.712;2023-05-29T09:10:37;17.70;;;16.60;;
23370;SDS011;11858;51.056;3.712;2023-05-29T09:13:04;17.33;;;16.23;;
23370;SDS011;11858;51.056;3.712;2023-05-29T09:15:30;17.50;;;16.40;;
23370;SDS011;11858;51.056;3.712;2023-05-29T09:17:56;17.23;;;16.23;;
23370;SDS011;11858;51.056;3.712;2023-05-29T09:20:23;16.83;;;15.82;;
23370;SDS011;11858;51.056;3.712;2023-05-29T09:22:59;16.95;;;15.75;;
23370;SDS011;11858;51.056;3.712;2023-05-29T09:25:33;16.95;;;15.95;;
23370;SDS011;11858;51.056;3.712;2023-05-29T09:28:07;17.40;;;16.30;;
23370;SDS011;11858;51.056;3.712;2023-05-29T09:30:35;17.23;;;16.13;;
23370;SDS011;11858;51.056;3.712;2023-05-29T09:33:10;16.30;;;15.30;;
23370;SDS011;11858;51.056;3.712;2023-05-29T09:35:37;16.58;;;15.57;;
23370;SDS011;11858;51.056;3.712;2023-05-29T09:38:05;17.40;;;16.23;;
23370;SDS011;11858;51.056;3.712;2023-05-29T09:40:40;17.27;;;16.17;;
23370;SDS011;11858;51.056;3.712;2023-05-29T09:43:09;16.48;;;15.48;;
23370;SDS011;11858;51.056;3.712;2023-05-29T09:45:37;16.70;;;15.70;;
23370;SDS011;11858;51.056;3.712;2023-05-29T09:50:36;16.50;;;15.50;;
23370;SDS011;11858;51.056;3.712;2023-05-29T09:53:02;15.70;;;14.80;;
23370;SDS011;11858;51.056;3.712;2023-05-29T09:55:28;16.90;;;15.80;;
23370;SDS011;11858;51.056;3.712;2023-05-29T09:57:57;16.60;;;15.60;;
23370;SDS011;11858;51.056;3.712;2023-05-29T10:00:23;16.15;;;15.18;;
23370;SDS011;11858;51.056;3.712;2023-05-29T10:02:49;15.98;;;15.07;;
23370;SDS011;11858;51.056;3.712;2023-05-29T10:05:15;16.48;;;15.35;;
23370;SDS011;11858;51.056;3.712;2023-05-29T10:07:46;15.00;;;14.10;;
23370;SDS011;11858;51.056;3.712;2023-05-29T10:10:14;16.00;;;14.90;;
23370;SDS011;11858;51.056;3.712;2023-05-29T10:12:49;16.35;;;15.35;;
23370;SDS011;11858;51.056;3.712;2023-05-29T10:15:16;16.38;;;15.27;;
23370;SDS011;11858;51.056;3.712;2023-05-29T10:17:56;16.20;;;15.20;;
23370;SDS011;11858;51.056;3.712;2023-05-29T10:20:25;16.40;;;15.40;;
23370;SDS011;11858;51.056;3.712;2023-05-29T10:22:53;15.63;;;14.73;;
23370;SDS011;11858;51.056;3.712;2023-05-29T10:25:21;15.63;;;14.65;;
23370;SDS011;11858;51.056;3.712;2023-05-29T10:27:48;18.20;;;16.83;;
23370;SDS011;11858;51.056;3.712;2023-05-29T10:30:17;15.80;;;14.75;;
23370;SDS011;11858;51.056;3.712;2023-05-29T10:36:07;17.20;;;15.90;;
23370;SDS011;11858;51.056;3.712;2023-05-29T10:38:44;16.00;;;15.00;;
23370;SDS011;11858;51.056;3.712;2023-05-29T10:43:56;16.15;;;15.15;;
23370;SDS011;11858;51.056;3.712;2023-05-29T10:51:45;19.08;;;14.90;;
23370;SDS011;11858;51.056;3.712;2023-05-29T10:54:11;14.80;;;14.00;;
23370;SDS011;11858;51.056;3.712;2023-05-29T10:56:41;15.65;;;14.75;;
23370;SDS011;11858;51.056;3.712;2023-05-29T10:59:16;15.10;;;14.20;;
23370;SDS011;11858;51.056;3.712;2023-05-29T11:01:43;15.15;;;14.25;;
23370;SDS011;11858;51.056;3.712;2023-05-29T11:06:40;17.35;;;16.25;;
23370;SDS011;11858;51.056;3.712;2023-05-29T11:09:25;16.20;;;15.20;;
23370;SDS011;11858;51.056;3.712;2023-05-29T11:15:07;15.60;;;14.70;;
23370;SDS011;11858;51.056;3.712;2023-05-29T11:20:04;16.70;;;15.43;;
23370;SDS011;11858;51.056;3.712;2023-05-29T11:22:55;15.85;;;14.95;;
23370;SDS011;11858;51.056;3.712;2023-05-29T11:25:27;15.98;;;15.07;;
23370;SDS011;11858;51.056;3.712;2023-05-29T11:27:53;15.60;;;14.65;;
23370;SDS011;11858;51.056;3.712;2023-05-29T11:30:22;16.15;;;15.15;;
23370;SDS011;11858;51.056;3.712;2023-05-29T11:32:48;15.35;;;14.45;;
23370;SDS011;11858;51.056;3.712;2023-05-29T11:35:14;15.48;;;14.57;;
23370;SDS011;11858;51.056;3.712;2023-05-29T11:37:42;15.48;;;14.57;;
23370;SDS011;11858;51.056;3.712;2023-05-29T11:40:10;21.85;;;14.48;;
23370;SDS011;11858;51.056;3.712;2023-05-29T11:42:46;14.77;;;13.98;;
23370;SDS011;11858;51.056;3.712;2023-05-29T11:45:17;15.30;;;14.40;;
23370;SDS011;11858;51.056;3.712;2023-05-29T11:50:30;16.38;;;15.38;;
23370;SDS011;11858;51.056;3.712;2023-05-29T11:52:57;16.40;;;15.20;;
23370;SDS011;11858;51.056;3.712;2023-05-29T11:55:24;16.33;;;15.32;;
23370;SDS011;11858;51.056;3.712;2023-05-29T11:57:51;15.43;;;14.52;;
23370;SDS011;11858;51.056;3.712;2023-05-29T12:02:47;15.32;;;14.43;;
23370;SDS011;11858;51.056;3.712;2023-05-29T12:05:13;15.52;;;14.63;;
23370;SDS011;11858;51.056;3.712;2023-05-29T12:07:53;15.90;;;15.00;;
23370;SDS011;11858;51.056;3.712;2023-05-29T12:10:23;17.63;;;15.98;;
23370;SDS011;11858;51.056;3.712;2023-05-29T12:12:52;15.20;;;14.30;;
23370;SDS011;11858;51.056;3.712;2023-05-29T12:17:46;15.75;;;14.85;;
23370;SDS011;11858;51.056;3.712;2023-05-29T12:20:13;16.42;;;15.43;;
23370;SDS011;11858;51.056;3.712;2023-05-29T12:22:40;16.02;;;15.13;;
23370;SDS011;11858;51.056;3.712;2023-05-29T12:27:38;16.92;;;15.93;;
23370;SDS011;11858;51.056;3.712;2023-05-29T12:32:37;16.10;;;15.10;;
23370;SDS011;11858;51.056;3.712;2023-05-29T12:35:10;16.50;;;15.50;;
23370;SDS011;11858;51.056;3.712;2023-05-29T12:37:44;16.50;;;15.50;;
23370;SDS011;11858;51.056;3.712;2023-05-29T12:40:10;15.77;;;14.88;;
23370;SDS011;11858;51.056;3.712;2023-05-29T12:42:41;15.93;;;14.82;;
23370;SDS011;11858;51.056;3.712;2023-05-29T12:45:07;15.38;;;14.48;;
23370;SDS011;11858;51.056;3.712;2023-05-29T12:47:34;15.77;;;14.88;;
23370;SDS011;11858;51.056;3.712;2023-05-29T12:50:04;16.45;;;15.32;;
23370;SDS011;11858;51.056;3.712;2023-05-29T12:52:44;16.15;;;15.18;;
23370;SDS011;11858;51.056;3.712;2023-05-29T12:55:09;15.85;;;14.90;;
23370;SDS011;11858;51.056;3.712;2023-05-29T12:57:35;17.27;;;16.13;;
23370;SDS011;11858;51.056;3.712;2023-05-29T13:00:00;16.70;;;15.70;;
23370;SDS011;11858;51.056;3.712;2023-05-29T13:02:26;17.95;;;16.80;;
23370;SDS011;11858;51.056;3.712;2023-05-29T13:04:54;17.55;;;16.45;;
23370;SDS011;11858;51.056;3.712;2023-05-29T13:07:20;16.83;;;15.82;;
23370;SDS011;11858;51.056;3.712;2023-05-29T13:09:45;18.33;;;17.23;;
23370;SDS011;11858;51.056;3.712;2023-05-29T13:12:11;18.25;;;17.15;;
23370;SDS011;11858;51.056;3.712;2023-05-29T13:14:37;17.75;;;16.75;;
23370;SDS011;11858;51.056;3.712;2023-05-29T13:17:03;18.30;;;17.20;;
23370;SDS011;11858;51.056;3.712;2023-05-29T13:19:28;18.20;;;17.10;;
23370;SDS011;11858;51.056;3.712;2023-05-29T13:21:54;28.10;;;18.35;;
23370;SDS011;11858;51.056;3.712;2023-05-29T13:24:20;18.15;;;17.05;;
23370;SDS011;11858;51.056;3.712;2023-05-29T13:26:46;16.83;;;15.82;;
23370;SDS011;11858;51.056;3.712;2023-05-29T13:29:12;16.50;;;15.60;;
23370;SDS011;11858;51.056;3.712;2023-05-29T13:31:37;17.40;;;16.40;;
23370;SDS011;11858;51.056;3.712;2023-05-29T13:34:03;17.45;;;16.45;;
23370;SDS011;11858;51.056;3.712;2023-05-29T13:36:28;16.45;;;15.55;;
23370;SDS011;11858;51.056;3.712;2023-05-29T13:38:54;17.20;;;16.20;;
23370;SDS011;11858;51.056;3.712;2023-05-29T13:41:20;16.20;;;15.30;;
23370;SDS011;11858;51.056;3.712;2023-05-29T13:43:45;15.85;;;14.95;;
23370;SDS011;11858;51.056;3.712;2023-05-29T13:46:11;16.38;;;15.38;;
23370;SDS011;11858;51.056;3.712;2023-05-29T13:48:37;17.00;;;15.80;;
23370;SDS011;11858;51.056;3.712;2023-05-29T13:51:03;18.08;;;16.70;;
23370;SDS011;11858;51.056;3.712;2023-05-29T13:53:28;16.42;;;15.43;;
23370;SDS011;11858;51.056;3.712;2023-05-29T13:55:54;16.42;;;15.43;;
23370;SDS011;11858;51.056;3.712;2023-05-29T13:58:20;16.20;;;15.30;;
23370;SDS011;11858;51.056;3.712;2023-05-29T14:00:45;15.10;;;14.30;;
23370;SDS011;11858;51.056;3.712;2023-05-29T14:03:12;16.77;;;15.77;;
23370;SDS011;11858;51.056;3.712;2023-05-29T14:05:37;18.30;;;17.30;;
23370;SDS011;11858;51.056;3.712;2023-05-29T14:08:03;18.67;;;17.58;;
23370;SDS011;11858;51.056;3.712;2023-05-29T14:10:28;18.63;;;17.52;;
23370;SDS011;11858;51.056;3.712;2023-05-29T14:12:54;19.02;;;17.92;;
23370;SDS011;11858;51.056;3.712;2023-05-29T14:15:20;18.80;;;17.70;;
23370;SDS011;11858;51.056;3.712;2023-05-29T14:17:46;18.20;;;17.20;;
23370;SDS011;11858;51.056;3.712;2023-05-29T14:20:11;18.00;;;17.00;;
23370;SDS011;11858;51.056;3.712;2023-05-29T14:22:37;18.58;;;17.48;;
23370;SDS011;11858;51.056;3.712;2023-05-29T14:25:03;18.77;;;17.67;;
23370;SDS011;11858;51.056;3.712;2023-05-29T14:27:29;17.80;;;16.80;;
23370;SDS011;11858;51.056;3.712;2023-05-29T14:29:54;18.38;;;17.27;;
23370;SDS011;11858;51.056;3.712;2023-05-29T14:32:20;18.83;;;17.67;;
23370;SDS011;11858;51.056;3.712;2023-05-29T14:34:46;17.75;;;16.75;;
23370;SDS011;11858;51.056;3.712;2023-05-29T14:37:11;18.85;;;17.75;;
23370;SDS011;11858;51.056;3.712;2023-05-29T14:39:37;18.33;;;17.33;;
23370;SDS011;11858;51.056;3.712;2023-05-29T14:42:03;18.20;;;17.10;;
23370;SDS011;11858;51.056;3.712;2023-05-29T14:44:28;17.88;;;16.88;;
23370;SDS011;11858;51.056;3.712;2023-05-29T14:46:54;19.30;;;17.95;;
23370;SDS011;11858;51.056;3.712;2023-05-29T14:49:20;18.60;;;17.50;;
23370;SDS011;11858;51.056;3.712;2023-05-29T14:51:46;19.40;;;18.20;;
23370;SDS011;11858;51.056;3.712;2023-05-29T14:54:12;18.42;;;17.38;;
23370;SDS011;11858;51.056;3.712;2023-05-29T14:56:37;18.65;;;17.45;;
23370;SDS011;11858;51.056;3.712;2023-05-29T14:59:03;18.65;;;17.40;;